| time (UTC) | temp F | wind direction | speed MPH | gust MPH | rain 1hr in | rain 24hr in | rain mn in | humidity % | barometer mb |
| 20260904130024 | 67 | 232 | 0.0 | 0.0 | 0.00 | 2.13 | 0.08 | 99 | 1014.8 |
| 20260904124559 | 67 | 235 | 0.0 | 0.0 | 0.00 | 2.25 | 0.08 | 99 | 1014.9 |
| 20260904123023 | 66 | 235 | 0.0 | 0.0 | 0.00 | 2.25 | 0.08 | 99 | 1015.0 |
| 20260904121554 | 65 | 235 | 0.0 | 0.0 | 0.00 | 2.25 | 0.08 | 99 | 1015.2 |
| 20260904120021 | 64 | 235 | 0.0 | 0.0 | 0.00 | 2.25 | 0.08 | 99 | 1015.1 |
| 20260904114605 | 64 | 235 | 0.0 | 0.0 | 0.00 | 2.60 | 0.08 | 98 | 1014.9 |
| 20260904113033 | 64 | 235 | 0.0 | 0.0 | 0.00 | 2.60 | 0.08 | 98 | 1014.7 |
| 20260904111553 | 64 | 235 | 0.0 | 0.0 | 0.00 | 2.60 | 0.08 | 98 | 1014.4 |
| 20260904110034 | 64 | 235 | 0.0 | 0.0 | 0.00 | 2.60 | 0.08 | 98 | 1014.2 |
| 20260904104605 | 64 | 235 | 0.0 | 0.0 | 0.00 | 2.60 | 0.08 | 98 | 1014.3 |
| 20260904103021 | 64 | 235 | 0.0 | 0.0 | 0.00 | 2.60 | 0.08 | 98 | 1014.4 |
| 20260904101555 | 64 | 235 | 0.0 | 0.0 | 0.00 | 2.60 | 0.08 | 98 | 1014.3 |
| 20260904100017 | 64 | 235 | 0.0 | 0.0 | 0.00 | 2.60 | 0.08 | 98 | 1014.0 |
| 20260904094559 | 64 | 235 | 0.0 | 0.0 | 0.00 | 2.60 | 0.08 | 98 | 1013.9 |
| 20260904093033 | 65 | 232 | 0.0 | 0.0 | 0.00 | 2.60 | 0.08 | 98 | 1013.9 |
| 20260904091508 | 65 | 232 | 0.0 | 0.0 | 0.00 | 2.60 | 0.08 | 98 | 1013.9 |
| 20260904090049 | 65 | 232 | 0.0 | 0.0 | 0.00 | 2.60 | 0.08 | 98 | 1013.9 |
| 20260904084611 | 65 | 232 | 0.0 | 0.0 | 0.00 | 2.60 | 0.08 | 98 | 1014.0 |
| 20260904083036 | 65 | 232 | 0.0 | 0.0 | 0.00 | 2.60 | 0.08 | 98 | 1014.0 |
| 20260904081610 | 65 | 232 | 0.0 | 0.0 | 0.00 | 2.60 | 0.08 | 98 | 1013.8 |
| 20260904080041 | 66 | 232 | 0.0 | 0.0 | 0.00 | 2.60 | 0.08 | 98 | 1013.7 |
| 20260904074604 | 66 | 232 | 0.0 | 0.0 | 0.00 | 2.60 | 0.08 | 98 | 1013.5 |
| 20260904073051 | 66 | 232 | 0.0 | 0.0 | 0.00 | 2.60 | 0.08 | 98 | 1013.7 |
| 20260904071544 | 67 | 232 | 0.0 | 0.0 | 0.00 | 2.60 | 0.08 | 98 | 1013.6 |
| 20260904070045 | 67 | 232 | 0.0 | 0.0 | 0.00 | 2.60 | 0.08 | 98 | 1013.6 |
| 20260904064504 | 67 | 232 | 0.0 | 0.0 | 0.00 | 2.60 | 0.08 | 98 | 1013.6 |
| 20260904063049 | 67 | 224 | 0.0 | 2.0 | 0.01 | 2.60 | 0.08 | 98 | 1013.7 |
| 20260904061519 | 67 | 269 | 1.0 | 5.0 | 0.02 | 2.60 | 0.08 | 98 | 1013.6 |
| 20260904060047 | 67 | 267 | 1.0 | 4.0 | 0.05 | 2.60 | 0.08 | 98 | 1013.6 |
| 20260904054511 | 67 | 220 | 1.0 | 4.0 | 0.06 | 2.60 | 0.08 | 98 | 1014.1 |
| 20260904053003 | 68 | 255 | 0.0 | 5.0 | 0.07 | 2.59 | 0.07 | 98 | 1014.0 |
| 20260904051556 | 68 | 317 | 0.0 | 0.0 | 0.06 | 2.58 | 0.06 | 98 | 1014.4 |
| 20260904050019 | 68 | 314 | 0.0 | 0.0 | 0.03 | 2.54 | 0.03 | 98 | 1013.9 |
| 20260904044601 | 68 | 217 | 0.0 | 0.0 | 0.02 | 2.54 | 0.02 | 98 | 1013.5 |
| 20260904043032 | 68 | 243 | 0.0 | 3.0 | 0.00 | 2.52 | 0.00 | 98 | 1013.4 |
| 20260904041612 | 68 | 254 | 0.0 | 3.0 | 0.00 | 2.52 | 0.00 | 98 | 1013.4 |
| 20260904040021 | 68 | 252 | 0.0 | 2.0 | 0.00 | 2.52 | 0.00 | 98 | 1013.5 |
| 20260904034606 | 68 | 268 | 0.0 | 3.0 | 0.00 | 2.52 | 2.52 | 98 | 1013.7 |
| 20260904033016 | 68 | 213 | 0.0 | 3.0 | 0.00 | 2.52 | 2.52 | 98 | 1013.7 |
| 20260904031502 | 68 | 219 | 0.0 | 4.0 | 0.00 | 2.52 | 2.52 | 98 | 1013.6 |
| 20260904030034 | 68 | 203 | 0.0 | 2.0 | 0.00 | 2.52 | 2.52 | 98 | 1013.6 |
| 20260904023013 | 68 | 221 | 0.0 | 3.0 | 0.00 | 2.52 | 2.52 | 98 | 1014.0 |
| 20260904021536 | 68 | 188 | 0.0 | 0.0 | 0.00 | 2.52 | 2.52 | 98 | 1013.9 |
| 20260904020005 | 68 | 188 | 0.0 | 1.0 | 0.02 | 2.52 | 2.52 | 98 | 1014.3 |
| 20260904014542 | 68 | 194 | 0.0 | 0.0 | 0.00 | 0.00 | 2.52 | 98 | 1014.1 |
| 20260904013002 | 68 | 182 | 1.0 | 3.0 | 0.09 | 2.82 | 2.52 | 97 | 1013.9 |
| 20260904011545 | 68 | 182 | 1.0 | 3.0 | 0.15 | 2.82 | 2.52 | 97 | 1013.6 |
| 20260904010007 | 68 | 305 | 0.0 | 4.0 | 0.19 | 2.80 | 2.50 | 97 | 1014.0 |
| 20260904004546 | 69 | 360 | 1.0 | 5.0 | 0.15 | 2.76 | 2.46 | 97 | 1015.7 |
| 20260904003012 | 69 | 318 | 1.0 | 9.0 | 0.14 | 2.73 | 2.43 | 97 | 1016.0 |
| 20260904001541 | 69 | 325 | 4.0 | 9.0 | 0.07 | 2.66 | 2.36 | 97 | 1016.4 |
| 20260904000006 | 68 | 215 | 0.0 | 2.0 | 0.02 | 2.61 | 2.31 | 96 | 1013.7 |
| 20260903234536 | 69 | 227 | 0.0 | 2.0 | 0.02 | 2.61 | 2.31 | 97 | 1013.8 |
| 20260903231549 | 69 | 169 | 0.0 | 2.0 | 0.02 | 2.59 | 2.29 | 96 | 1014.6 |
| 20260903230010 | 68 | 182 | 2.0 | 5.0 | 0.03 | 2.59 | 2.29 | 96 | 1014.2 |
| 20260903224505 | 67 | 207 | 0.0 | 2.0 | 0.65 | 2.59 | 2.29 | 96 | 1013.4 |
| 20260903223045 | 67 | 184 | 0.0 | 1.0 | 1.05 | 2.58 | 2.27 | 95 | 1013.8 |
| 20260903221503 | 67 | 323 | 1.0 | 4.0 | 1.04 | 2.57 | 2.27 | 94 | 1013.3 |
| 20260903220058 | 67 | 177 | 2.0 | 5.0 | 1.03 | 2.56 | 2.25 | 92 | 1012.4 |
| 20260903214503 | 71 | 42 | 4.0 | 21.0 | 0.37 | 1.90 | 1.60 | 84 | 1014.2 |
| 20260903213030 | 81 | 253 | 1.0 | 2.0 | 0.00 | 1.53 | 1.23 | 86 | 1012.0 |
| 20260903211616 | 82 | 250 | 0.0 | 1.0 | 0.00 | 1.53 | 1.23 | 82 | 1011.5 |
| 20260903210034 | 84 | 232 | 0.0 | 0.0 | 0.00 | 1.53 | 1.23 | 77 | 1010.5 |
| 20260903204605 | 85 | 232 | 0.0 | 1.0 | 0.00 | 1.53 | 1.23 | 74 | 1011.0 |
| 20260903203026 | 87 | 258 | 1.0 | 5.0 | 0.00 | 1.53 | 1.23 | 70 | 1011.7 |
| 20260903201502 | 88 | 262 | 0.0 | 4.0 | 0.00 | 1.53 | 1.23 | 68 | 1011.3 |
| 20260903200150 | 89 | 292 | 1.0 | 6.0 | 0.00 | 1.53 | 1.23 | 68 | 1011.7 |
| 20260903194508 | 88 | 224 | 1.0 | 7.0 | 0.00 | 1.53 | 1.23 | 70 | 1011.4 |
| 20260903193058 | 87 | 244 | 1.0 | 5.0 | 0.00 | 1.53 | 1.23 | 70 | 1012.1 |
| 20260903191519 | 87 | 222 | 1.0 | 4.0 | 0.00 | 1.53 | 1.23 | 70 | 1012.6 |
| 20260903190030 | 86 | 244 | 1.0 | 5.0 | 0.00 | 1.53 | 1.23 | 72 | 1013.0 |
| 20260903184604 | 86 | 259 | 2.0 | 4.0 | 0.00 | 1.53 | 1.23 | 73 | 1013.2 |
| 20260903183032 | 85 | 167 | 2.0 | 6.0 | 0.00 | 1.53 | 1.23 | 74 | 1013.2 |
| 20260903181557 | 84 | 246 | 3.0 | 7.0 | 0.00 | 1.53 | 1.23 | 75 | 1013.4 |
| 20260903180108 | 84 | 226 | 1.0 | 5.0 | 0.00 | 1.53 | 1.23 | 78 | 1013.5 |
| 20260903174538 | 82 | 240 | 2.0 | 5.0 | 0.00 | 1.53 | 1.23 | 80 | 1013.9 |
| 20260903173009 | 81 | 240 | 1.0 | 6.0 | 0.00 | 1.53 | 1.23 | 83 | 1014.0 |
| 20260903171540 | 79 | 238 | 3.0 | 7.0 | 0.00 | 1.53 | 1.23 | 83 | 1014.0 |
| 20260903170016 | 78 | 234 | 1.0 | 5.0 | 0.00 | 1.53 | 1.23 | 91 | 1014.1 |
| 20260903163020 | 75 | 198 | 1.0 | 5.0 | 0.00 | 1.53 | 1.23 | 97 | 1014.2 |
| 20260903161611 | 73 | 178 | 1.0 | 5.0 | 0.00 | 1.53 | 1.23 | 98 | 1014.3 |
| 20260903160017 | 72 | 182 | 0.0 | 5.0 | 0.00 | 1.53 | 1.23 | 98 | 1014.4 |
| 20260903154536 | 71 | 259 | 1.0 | 4.0 | 0.01 | 1.53 | 1.23 | 99 | 1014.7 |
| 20260903153004 | 69 | 68 | 1.0 | 3.0 | 0.28 | 1.53 | 1.23 | 98 | 1014.9 |
| 20260903151543 | 68 | 172 | 0.0 | 5.0 | 0.61 | 1.53 | 1.23 | 98 | 1014.8 |
| 20260903150046 | 67 | 153 | 0.0 | 4.0 | 0.61 | 1.53 | 1.23 | 98 | 1015.0 |
| 20260903144507 | 68 | 199 | 2.0 | 9.0 | 0.60 | 1.51 | 1.21 | 98 | 1015.4 |
| 20260903143044 | 68 | 171 | 2.0 | 4.0 | 0.35 | 1.24 | 0.94 | 98 | 1015.2 |
| 20260903141612 | 68 | 36 | 1.0 | 3.0 | 0.05 | 0.93 | 0.63 | 98 | 1016.1 |
| 20260903140029 | 68 | 181 | 0.0 | 3.0 | 0.15 | 0.92 | 0.62 | 98 | 1015.4 |
| 20260903134611 | 68 | 204 | 0.0 | 3.0 | 0.26 | 0.91 | 0.61 | 98 | 1015.7 |
| 20260903133036 | 67 | 166 | 0.0 | 5.0 | 0.25 | 0.89 | 0.59 | 98 | 1015.8 |
| 20260903131605 | 67 | 207 | 0.0 | 4.0 | 0.23 | 0.87 | 0.56 | 98 | 1016.6 |